Terminal Aerodrome Forecast
Issued by NWS Mt. Holly, NJ

Home | Current Version | Previous Version | Text Only | Print | Product List | Glossary On
Versions: 1 2 3 4 5 6 7 8 9 10 11 12 13
000
FTUS41 KPHI 211700 RRA
TAFILG
TAF
KILG 211751Z 2118/2218 27004KT P6SM FEW035 BKN050
     FM212200 32006KT P6SM VCSH BKN050
     FM220400 03008KT 6SM -RA SCT025 OVC040
     FM220900 03010KT 4SM -RA BR BKN008
     FM221600 03012G20KT 4SM RA BKN015=

USA.gov is the U.S. government's official web portal to all federal, state and local government web resources and services.